Eldersburg, Maryland
Current Conditions -  °F | °C
As of 5:25 PM on Monday 20 Oct 2014 (Local Time) from KDMW Reporting Station
Clear Clear  
Wind Chill: 61°   Ceiling: Unl
Heat Index: 61°   Visibility: 10mi
Dew Point: 43°   Wind: 3mph
Humidity: 52%   Direction: 260°W
Pressure: 29.95"   Gusts: NA
Location:  39.3995°N, 76.9748°W
Report Text: KDMW 202125Z AUTO 26003KT 10SM CLR 16/06 A2995 RMK AO2
Loading
Personal Weather Stations






























Interactive Weather Map
Tropical Storm Tracking
New forecast layout! Learn more

10-Day Weather Forecast

Advertisements
Track Severe Weather on mobile